createdAt,value
2018-11-07T00:10:25.935Z,95706.24
2018-11-07T00:12:56.070Z,95703.00
2018-11-07T00:15:25.859Z,95695.22
2018-11-07T00:35:25.446Z,95697.28
2018-11-07T00:37:55.209Z,95699.34
2018-11-07T00:40:24.915Z,95700.83
2018-11-07T00:42:54.943Z,95694.70
2018-11-07T00:45:24.529Z,95692.64
2018-11-07T01:05:16.422Z,95699.05
2018-11-07T01:07:47.116Z,95692.20
2018-11-07T01:10:16.626Z,95696.34
2018-11-07T01:12:46.431Z,95686.29
2018-11-07T01:32:38.534Z,95664.29
2018-11-07T01:35:08.821Z,95667.62
2018-11-07T01:55:00.316Z,95666.53
2018-11-07T01:57:30.028Z,95664.69
2018-11-07T01:59:59.856Z,95669.39
2018-11-07T02:02:29.605Z,95664.13
2018-11-07T02:04:59.430Z,95675.58
2018-11-07T02:24:50.523Z,95669.21
2018-11-07T02:27:20.688Z,95661.80
2018-11-07T02:29:50.433Z,95663.11
2018-11-07T02:32:20.110Z,95662.66
2018-11-07T02:34:50.019Z,95663.55
2018-11-07T02:37:19.572Z,95664.87
2018-11-07T02:57:11.891Z,95667.72
2018-11-07T02:59:41.259Z,95671.20
2018-11-07T03:02:10.945Z,95672.84
2018-11-07T03:04:40.958Z,95671.27
2018-11-07T03:07:10.653Z,95669.48
2018-11-07T03:09:40.309Z,95665.61
2018-11-07T03:12:09.999Z,95670.97
2018-11-07T03:14:39.525Z,95673.65
2018-11-07T03:17:09.458Z,95670.20
2018-11-07T03:19:39.401Z,95668.67
2018-11-07T03:22:08.860Z,95669.21
2018-11-07T03:24:38.356Z,95670.79
2018-11-07T03:27:08.020Z,95664.48
2018-11-07T03:29:38.629Z,95667.61
2018-11-07T03:32:08.889Z,95663.67
2018-11-07T03:34:38.315Z,95668.89
2018-11-07T03:37:07.972Z,95671.74
2018-11-07T03:56:59.579Z,95672.56
2018-11-07T04:16:51.734Z,95681.74
2018-11-07T04:19:21.893Z,95681.38
2018-11-07T04:39:13.445Z,95695.73
2018-11-07T04:41:43.057Z,95695.47
2018-11-07T04:44:12.677Z,95697.86
2018-11-07T04:46:42.455Z,95698.98
2018-11-07T04:49:12.141Z,95703.84
2018-11-07T04:51:41.893Z,95700.70
2018-11-07T04:54:11.525Z,95704.20
2018-11-07T04:56:41.501Z,95705.36
2018-11-07T05:16:34.624Z,95726.48
2018-11-07T05:19:04.925Z,95732.19
2018-11-07T05:38:55.827Z,95749.59
2018-11-07T05:41:25.857Z,95747.77
2018-11-07T05:43:55.626Z,95746.73
2018-11-07T05:46:25.270Z,95747.01
2018-11-07T05:49:01.689Z,95752.53
2018-11-07T05:51:31.335Z,95746.16
2018-11-07T05:54:01.139Z,95751.12
2018-11-07T05:56:31.427Z,95752.78
2018-11-07T05:59:00.983Z,95755.21
2018-11-07T06:01:31.208Z,95750.02
2018-11-07T06:04:01.205Z,95751.47
2018-11-07T06:23:52.665Z,95767.16
2018-11-07T06:26:23.065Z,95764.66
2018-11-07T06:28:52.893Z,95777.47
2018-11-07T06:31:22.793Z,95774.42
2018-11-07T06:33:52.708Z,95772.99
2018-11-07T06:36:22.451Z,95769.77
2018-11-07T06:38:51.929Z,95777.42
2018-11-07T06:41:21.680Z,95770.33
2018-11-07T06:43:51.373Z,95748.61
2018-11-07T06:46:20.918Z,95766.24
2018-11-07T06:48:50.797Z,95768.53
2018-11-07T06:51:20.297Z,95775.62
2018-11-07T06:53:49.769Z,95770.29
2018-11-07T06:56:19.391Z,95766.16
2018-11-07T06:58:48.998Z,95764.98
2018-11-07T07:01:18.847Z,95770.83
2018-11-07T07:03:48.479Z,95776.03
2018-11-07T07:06:18.141Z,95763.41
2018-11-07T07:08:48.079Z,95762.56
2018-11-07T07:11:17.713Z,95763.23
2018-11-07T07:13:47.466Z,95760.78
2018-11-07T07:16:17.006Z,95765.06
2018-11-07T07:18:46.826Z,95762.13
2018-11-07T07:41:33.833Z,95752.28
2018-11-07T07:44:03.813Z,95757.23
2018-11-07T07:46:33.437Z,95756.80
2018-11-07T07:49:03.200Z,95754.87
2018-11-07T07:51:32.854Z,95752.81
2018-11-07T07:54:02.598Z,95757.27
2018-11-07T07:56:32.595Z,95753.34
2018-11-07T07:59:02.135Z,95753.08
2018-11-07T08:01:31.941Z,95752.33
2018-11-07T08:04:01.787Z,95746.34
2018-11-07T08:06:34.321Z,95752.03
2018-11-07T08:09:04.985Z,95750.48
2018-11-07T08:11:34.542Z,95746.84
2018-11-07T08:14:04.422Z,95744.97
2018-11-07T08:16:34.209Z,95754.16
2018-11-07T08:36:25.965Z,95741.30
2018-11-07T08:38:55.761Z,95738.45
2018-11-07T08:41:25.282Z,95737.27
2018-11-07T09:01:16.950Z,95703.93
2018-11-07T09:03:46.531Z,95743.16
2018-11-07T09:06:16.035Z,95738.38
2018-11-07T09:08:46.475Z,95729.47
2018-11-07T09:11:15.907Z,95727.38
2018-11-07T09:13:45.696Z,95722.50
2018-11-07T09:16:15.305Z,95716.23
2018-11-07T09:18:45.122Z,95714.66
2018-11-07T09:21:14.539Z,95715.58
2018-11-07T09:23:44.474Z,95715.18
2018-11-07T09:26:14.093Z,95701.00
2018-11-07T09:46:05.929Z,95669.50
2018-11-07T09:48:35.782Z,95667.94
2018-11-07T10:08:26.802Z,95647.61
2018-11-07T10:10:56.575Z,95642.35
2018-11-07T10:13:26.041Z,95643.92
2018-11-07T10:15:55.684Z,95632.49
2018-11-07T10:18:25.353Z,95637.85
2018-11-07T10:20:55.147Z,95631.77
2018-11-07T10:23:24.905Z,95628.50
2018-11-07T10:25:54.636Z,95626.37
2018-11-07T10:28:24.548Z,95614.32
2018-11-07T10:30:54.228Z,95615.53
2018-11-07T10:33:24.445Z,95618.55
2018-11-07T10:35:54.239Z,95615.89
2018-11-07T10:38:24.156Z,95607.64
2018-11-07T10:40:53.834Z,95607.30
2018-11-07T11:00:52.310Z,95582.02
2018-11-07T11:03:26.885Z,95574.19
2018-11-07T11:05:56.863Z,95571.69
2018-11-07T11:08:26.425Z,95567.75
2018-11-07T11:10:56.318Z,95572.20
2018-11-07T11:13:26.279Z,95565.91
2018-11-07T11:15:56.329Z,95567.78
2018-11-07T11:18:26.293Z,95561.03
2018-11-07T11:44:05.142Z,95526.97
2018-11-07T11:46:34.965Z,95523.91
2018-11-07T11:49:05.023Z,95518.80
2018-11-07T11:51:35.447Z,95522.67
2018-11-07T11:54:05.157Z,95506.61
2018-11-07T11:56:34.802Z,95505.50
2018-11-07T11:59:04.938Z,95502.06
2018-11-07T12:01:34.467Z,95503.36
2018-11-07T12:04:04.080Z,95491.23
2018-11-07T12:06:33.984Z,95495.66
2018-11-07T12:09:03.919Z,95483.48
2018-11-07T12:11:33.695Z,95496.44
2018-11-07T12:14:03.723Z,95490.58
2018-11-07T12:16:33.391Z,95490.02
2018-11-07T12:19:02.991Z,95483.75
2018-11-07T12:21:32.613Z,95484.62
2018-11-07T12:24:02.071Z,95474.89
2018-11-07T12:26:31.743Z,95480.48
2018-11-07T12:29:01.586Z,95478.48
2018-11-07T12:48:53.046Z,95473.82
2018-11-07T12:51:22.870Z,95479.28
2018-11-07T12:53:52.569Z,95468.36
2018-11-07T12:56:22.081Z,95475.02
2018-11-07T12:58:51.744Z,95469.34
2018-11-07T13:01:21.499Z,95465.61
2018-11-07T13:03:51.202Z,95464.45
2018-11-07T13:23:43.234Z,95462.27
2018-11-07T13:26:12.935Z,95455.12
2018-11-07T13:28:42.570Z,95456.39
2018-11-07T13:31:12.205Z,95462.28
2018-11-07T13:33:41.806Z,95461.27
2018-11-07T13:36:11.610Z,95465.63
2018-11-07T13:38:42.048Z,95469.11
2018-11-07T13:41:11.381Z,95469.60
2018-11-07T13:43:41.049Z,95465.83
2018-11-07T13:46:10.841Z,95462.17
2018-11-07T13:48:40.378Z,95461.13
2018-11-07T13:51:10.010Z,95460.46
2018-11-07T14:11:01.947Z,95473.34
2018-11-07T14:13:31.760Z,95467.58
2018-11-07T14:16:01.629Z,95472.98
2018-11-07T14:18:32.409Z,95478.98
2018-11-07T14:21:02.088Z,95485.01
2018-11-07T14:23:32.144Z,95477.66
2018-11-07T14:43:23.445Z,95491.53
2018-11-07T14:45:53.305Z,95494.81
2018-11-07T14:48:23.008Z,95498.63
2018-11-07T14:50:52.698Z,95493.91
2018-11-07T14:53:22.362Z,95496.31
2018-11-07T14:55:52.222Z,95494.95
2018-11-07T14:58:22.478Z,95493.26
2018-11-07T15:00:52.390Z,95501.36
2018-11-07T15:03:22.066Z,95505.95
2018-11-07T15:05:52.103Z,95497.01
2018-11-07T15:08:21.874Z,95509.77
2018-11-07T15:42:54.483Z,95534.10
2018-11-07T15:45:24.239Z,95530.93
2018-11-07T15:47:54.130Z,95528.27
2018-11-07T15:50:29.453Z,95539.31
2018-11-07T15:52:59.083Z,95536.66
2018-11-07T15:55:28.698Z,95539.81
2018-11-07T15:57:58.450Z,95537.14
2018-11-07T16:00:28.094Z,95552.11
2018-11-07T16:02:58.011Z,95558.45
2018-11-07T16:05:28.059Z,95561.84
2018-11-07T16:07:57.643Z,95554.97
2018-11-07T16:10:27.355Z,95564.12
2018-11-07T16:12:57.489Z,95564.39
2018-11-07T16:15:27.141Z,95563.67
2018-11-07T16:17:56.919Z,95562.06
2018-11-07T16:20:26.573Z,95564.37
2018-11-07T16:22:56.150Z,95568.84
2018-11-07T16:25:25.757Z,95574.06
2018-11-07T16:27:55.497Z,95566.83
2018-11-07T16:30:25.052Z,95573.13
2018-11-07T16:32:54.648Z,95569.90
2018-11-07T16:35:24.248Z,95576.84
2018-11-07T16:37:53.781Z,95574.44
2018-11-07T16:40:23.391Z,95581.88
2018-11-07T16:42:53.453Z,95581.10
2018-11-07T16:45:23.621Z,95578.82
2018-11-07T16:47:53.862Z,95585.63
2018-11-07T16:50:24.389Z,95583.28
2018-11-07T16:52:54.465Z,95581.00
2018-11-07T16:55:24.582Z,95580.23
2018-11-07T16:57:54.313Z,95586.33
2018-11-07T17:00:23.763Z,95583.56
2018-11-07T17:02:53.660Z,95592.41
2018-11-07T17:05:23.159Z,95590.94
2018-11-07T17:07:54.074Z,95592.64
2018-11-07T17:10:24.508Z,95592.43
2018-11-07T17:12:54.516Z,95598.02
2018-11-07T17:15:24.151Z,95594.08
2018-11-07T17:17:54.226Z,95591.58
2018-11-07T17:20:23.590Z,95597.14
2018-11-07T17:22:53.360Z,95597.41
2018-11-07T17:25:23.576Z,95597.16
2018-11-07T17:27:53.088Z,95598.34
2018-11-07T17:30:22.935Z,95604.23
2018-11-07T17:32:52.657Z,95597.33
2018-11-07T17:35:22.244Z,95601.10
2018-11-07T17:37:51.905Z,95596.50
2018-11-07T17:40:23.252Z,95598.48
2018-11-07T17:42:53.399Z,95603.07
2018-11-07T17:45:23.593Z,95602.02
2018-11-07T17:47:53.649Z,95603.81
2018-11-07T17:50:23.800Z,95610.36
2018-11-07T17:52:54.316Z,95611.30
2018-11-07T17:55:24.337Z,95606.25
2018-11-07T17:57:54.091Z,95607.02
2018-11-07T18:00:29.396Z,95604.49
2018-11-07T18:02:58.906Z,95614.06
2018-11-07T18:05:28.466Z,95605.63
2018-11-07T18:07:58.078Z,95612.38
2018-11-07T18:10:27.737Z,95608.91
2018-11-07T18:12:57.156Z,95609.83
2018-11-07T18:15:27.186Z,95618.50
2018-11-07T18:17:57.144Z,95616.89
2018-11-07T18:20:27.170Z,95614.00
2018-11-07T18:22:57.021Z,95621.80
2018-11-07T18:25:26.888Z,95616.75
2018-11-07T18:27:56.797Z,95621.94
2018-11-07T18:30:26.458Z,95619.30
2018-11-07T18:33:01.178Z,95619.41
2018-11-07T18:35:30.809Z,95628.73
2018-11-07T18:38:00.318Z,95627.16
2018-11-07T18:40:30.666Z,95624.09
2018-11-07T18:43:00.377Z,95631.66
2018-11-07T18:45:29.857Z,95629.14
2018-11-07T18:47:59.421Z,95630.96
2018-11-07T18:50:29.314Z,95633.36
2018-11-07T18:52:58.889Z,95641.32
2018-11-07T18:55:28.326Z,95635.50
2018-11-07T18:57:58.340Z,95637.28
2018-11-07T19:00:28.088Z,95643.03
2018-11-07T19:02:57.670Z,95648.20
2018-11-07T19:05:27.711Z,95647.19
2018-11-07T19:07:57.973Z,95652.86
2018-11-07T19:10:27.666Z,95648.50
2018-11-07T19:12:57.598Z,95650.59
2018-11-07T19:15:27.332Z,95657.90
2018-11-07T19:17:56.974Z,95656.36
2018-11-07T19:20:27.191Z,95660.19
2018-11-07T19:22:56.971Z,95654.95
2018-11-07T19:25:26.901Z,95659.89
2018-11-07T19:27:56.884Z,95659.25
2018-11-07T19:30:26.509Z,95667.30
2018-11-07T19:32:56.272Z,95660.92
2018-11-07T19:35:25.889Z,95665.02
2018-11-07T19:37:55.732Z,95665.52
2018-11-07T19:40:26.252Z,95665.31
2018-11-07T19:42:55.967Z,95669.47
2018-11-07T19:45:25.395Z,95662.73
2018-11-07T19:47:55.178Z,95661.93
2018-11-07T19:50:25.105Z,95661.59
2018-11-07T19:52:54.930Z,95665.34
2018-11-07T19:55:25.434Z,95665.61
2018-11-07T19:58:00.046Z,95663.78
2018-11-07T20:00:29.817Z,95672.20
2018-11-07T20:02:59.614Z,95662.06
2018-11-07T20:05:29.455Z,95656.73
2018-11-07T20:07:59.261Z,95653.19
2018-11-07T20:10:29.036Z,95662.05
2018-11-07T20:12:58.795Z,95661.75
2018-11-07T20:15:28.485Z,95660.86
2018-11-07T20:17:58.129Z,95659.25
2018-11-07T20:20:28.181Z,95659.34
2018-11-07T20:22:58.137Z,95651.33
2018-11-07T20:25:27.702Z,95656.32
2018-11-07T20:27:57.464Z,95661.22
2018-11-07T20:30:27.252Z,95658.93
2018-11-07T20:32:56.931Z,95665.36
2018-11-07T20:35:26.650Z,95659.48
2018-11-07T20:37:56.345Z,95660.17
2018-11-07T20:40:26.087Z,95662.78
2018-11-07T20:42:55.806Z,95658.29
2018-11-07T20:45:25.497Z,95659.75
2018-11-07T20:47:55.280Z,95663.10
2018-11-07T20:50:25.471Z,95666.17
2018-11-07T20:52:55.109Z,95662.68
2018-11-07T20:55:24.961Z,95669.36
2018-11-07T20:57:54.917Z,95671.97
2018-11-07T21:00:24.721Z,95667.36
2018-11-07T21:02:54.525Z,95664.29
2018-11-07T21:05:24.525Z,95656.30
2018-11-07T21:07:55.081Z,95664.45
2018-11-07T21:10:25.197Z,95667.50
2018-11-07T21:12:55.244Z,95660.75
2018-11-07T21:15:24.998Z,95668.17
2018-11-07T21:17:54.886Z,95667.17
2018-11-07T21:20:24.562Z,95662.56
2018-11-07T21:22:54.839Z,95664.41
2018-11-07T21:25:24.964Z,95665.91
2018-11-07T21:27:54.613Z,95669.13
2018-11-07T21:30:24.402Z,95664.94
2018-11-07T21:32:54.253Z,95668.12
2018-11-07T21:35:24.046Z,95669.46
2018-11-07T21:37:53.739Z,95663.39
2018-11-07T21:40:23.303Z,95666.22
2018-11-07T21:42:53.256Z,95672.88
2018-11-07T21:45:23.079Z,95673.33
2018-11-07T21:47:52.758Z,95668.03
2018-11-07T21:50:22.223Z,95671.22
2018-11-07T21:52:51.936Z,95667.40
2018-11-07T21:55:21.741Z,95665.72
2018-11-07T21:57:51.326Z,95666.31
2018-11-07T22:00:20.901Z,95666.59
2018-11-07T22:02:51.068Z,95664.28
2018-11-07T22:05:20.761Z,95660.09
2018-11-07T22:07:50.489Z,95671.98
2018-11-07T22:10:20.075Z,95670.55
2018-11-07T22:12:49.904Z,95668.67
2018-11-07T22:15:19.827Z,95668.23
2018-11-07T22:17:49.954Z,95668.32
2018-11-07T22:20:21.896Z,95664.33
2018-11-07T22:22:51.321Z,95657.95
2018-11-07T22:25:20.909Z,95660.36
2018-11-07T22:27:50.937Z,95665.36
2018-11-07T22:30:20.973Z,95661.86
2018-11-07T22:32:50.758Z,95662.80
2018-11-07T22:35:21.145Z,95665.50
2018-11-07T22:37:51.237Z,95668.83
2018-11-07T22:40:21.093Z,95662.89
2018-11-07T22:42:51.367Z,95664.05
2018-11-07T22:45:21.093Z,95654.93
2018-11-07T22:47:50.771Z,95654.93
2018-11-07T22:50:20.319Z,95647.60
2018-11-07T22:52:50.414Z,95647.83
2018-11-07T22:55:20.134Z,95648.23
2018-11-07T22:57:50.022Z,95642.89
2018-11-07T23:00:25.250Z,95647.38
2018-11-07T23:02:56.022Z,95646.08
2018-11-07T23:05:25.902Z,95643.33
2018-11-07T23:07:55.866Z,95641.35
2018-11-07T23:10:25.841Z,95646.79
2018-11-07T23:12:56.046Z,95648.59
2018-11-07T23:15:30.774Z,95647.50
2018-11-07T23:18:01.035Z,95651.20
2018-11-07T23:20:31.090Z,95651.27
2018-11-07T23:23:01.184Z,95651.36
2018-11-07T23:25:31.241Z,95647.44
2018-11-07T23:28:01.242Z,95646.85
2018-11-07T23:30:31.345Z,95638.69
2018-11-07T23:33:01.547Z,95638.09
2018-11-07T23:35:31.734Z,95642.98
2018-11-07T23:38:01.622Z,95636.92
2018-11-07T23:40:32.078Z,95638.09
2018-11-07T23:43:02.217Z,95630.69
2018-11-07T23:45:32.286Z,95630.41
2018-11-07T23:48:02.414Z,95637.33
2018-11-07T23:50:32.513Z,95634.08
2018-11-07T23:53:02.425Z,95635.34
2018-11-07T23:55:32.650Z,95624.92
2018-11-07T23:58:02.749Z,95625.07
